Meadowdale, Washington
Current Conditions -  °F | °C
As of 7:15 PM on Thursday 27 Nov 2014 (Local Time) from KPWT Reporting Station
Overcast Overcast  
Wind Chill: 52°   Ceiling: 1300
Heat Index: 52°   Visibility: 9mi
Dew Point: 52°   Wind: 16mph
Humidity: 100%   Direction: 180°S
Pressure: 29.76"   Gusts: 21mph
Location:  47.5964°N, 122.62°W
Report Text: KPWT 280315Z AUTO 18014G18KT 9SM SCT005 BKN013 OVC020 11/11 A2976 RMK AO1
Loading
Personal Weather Stations






























Interactive Weather Map New forecast layout! Learn more

10-Day Weather Forecast

Advertisements
Track Severe Weather on mobile